createdAt,value
2022-09-09T00:02:27.127Z,1.70
2022-09-09T00:05:23.371Z,3.27
2022-09-09T00:07:53.238Z,2.47
2022-09-09T00:10:40.399Z,2.07
2022-09-09T00:13:21.477Z,1.50
2022-09-09T00:16:17.682Z,1.20
2022-09-09T00:19:10.893Z,1.20
2022-09-09T00:21:40.084Z,2.10
2022-09-09T00:24:36.188Z,1.40
2022-09-09T00:27:34.386Z,3.70
2022-09-09T00:30:27.870Z,2.10
2022-09-09T00:32:59.371Z,1.50
2022-09-09T00:35:37.321Z,2.73
2022-09-09T00:38:37.742Z,2.87
2022-09-09T00:41:18.275Z,1.03
2022-09-09T00:43:58.873Z,3.23
2022-09-09T00:46:44.809Z,1.30
2022-09-09T00:49:31.337Z,2.20
2022-09-09T00:52:30.008Z,1.30
2022-09-09T00:55:57.881Z,1.20
2022-09-09T00:58:24.548Z,1.30
2022-09-09T01:01:12.318Z,1.80
2022-09-09T01:03:54.852Z,1.70
2022-09-09T01:06:37.848Z,1.33
2022-09-09T01:09:43.635Z,2.13
2022-09-09T01:12:17.743Z,1.27
2022-09-09T01:14:49.609Z,1.30
2022-09-09T01:17:34.043Z,1.10
2022-09-09T01:20:06.713Z,1.37
2022-09-09T01:23:11.730Z,1.97
2022-09-09T01:25:44.501Z,1.23
2022-09-09T01:28:17.645Z,1.03
2022-09-09T01:30:47.097Z,1.10
2022-09-09T01:33:19.113Z,1.20
2022-09-09T01:35:57.602Z,2.50
2022-09-09T01:38:25.740Z,1.30
2022-09-09T01:40:56.098Z,1.23
2022-09-09T01:43:24.758Z,1.77
2022-09-09T01:46:02.827Z,1.40
2022-09-09T01:48:30.286Z,1.30
2022-09-09T01:50:57.266Z,1.30
2022-09-09T01:53:24.519Z,2.97
2022-09-09T01:56:06.509Z,1.13
2022-09-09T01:59:03.610Z,1.30
2022-09-09T02:01:43.953Z,1.50
2022-09-09T02:04:30.307Z,1.70
2022-09-09T02:06:58.324Z,1.20
2022-09-09T02:09:26.772Z,2.30
2022-09-09T02:12:25.458Z,1.40
2022-09-09T02:15:06.149Z,2.03
2022-09-09T02:17:37.030Z,1.40
2022-09-09T02:20:15.276Z,1.30
2022-09-09T02:22:45.283Z,1.63
2022-09-09T02:25:16.049Z,2.60
2022-09-09T02:27:51.079Z,1.20
2022-09-09T02:30:20.866Z,1.30
2022-09-09T02:32:51.899Z,1.70
2022-09-09T02:35:25.256Z,1.93
2022-09-09T02:38:05.393Z,1.50
2022-09-09T02:40:32.098Z,1.20
2022-09-09T02:42:59.571Z,1.20
2022-09-09T02:45:30.479Z,1.30
2022-09-09T02:48:15.672Z,1.50
2022-09-09T02:50:54.958Z,1.30
2022-09-09T02:53:29.130Z,2.80
2022-09-09T02:56:10.449Z,2.83
2022-09-09T02:58:40.244Z,1.23
2022-09-09T03:01:07.014Z,1.93
2022-09-09T03:03:41.440Z,1.03
2022-09-09T03:06:12.756Z,1.30
2022-09-09T03:08:39.714Z,1.50
2022-09-09T03:11:06.325Z,1.33
2022-09-09T03:13:32.939Z,1.67
2022-09-09T03:16:00.056Z,2.30
2022-09-09T03:18:26.769Z,6.53
2022-09-09T03:20:55.054Z,2.77
2022-09-09T03:23:24.718Z,2.37
2022-09-09T03:25:52.190Z,1.60
2022-09-09T03:28:19.773Z,1.73
2022-09-09T03:30:46.398Z,2.73
2022-09-09T03:33:13.879Z,1.60
2022-09-09T03:35:46.714Z,3.20
2022-09-09T03:38:13.336Z,1.97
2022-09-09T03:40:40.435Z,3.57
2022-09-09T03:43:10.745Z,1.83
2022-09-09T03:45:37.395Z,3.67
2022-09-09T03:48:06.400Z,3.07
2022-09-09T03:50:33.302Z,1.70
2022-09-09T03:53:10.162Z,2.70
2022-09-09T03:55:37.009Z,2.27
2022-09-09T03:58:06.256Z,3.23
2022-09-09T04:00:35.981Z,2.73
2022-09-09T04:03:03.273Z,2.30
2022-09-09T04:05:30.199Z,2.93
2022-09-09T04:07:56.823Z,2.60
2022-09-09T04:10:24.000Z,2.30
2022-09-09T04:12:50.847Z,2.83
2022-09-09T04:15:19.669Z,2.97
2022-09-09T04:17:46.514Z,3.10
2022-09-09T04:20:20.352Z,2.97
2022-09-09T04:22:47.209Z,3.73
2022-09-09T04:25:16.474Z,2.03
2022-09-09T04:27:43.694Z,2.83
2022-09-09T04:30:13.485Z,2.30
2022-09-09T04:32:40.218Z,1.90
2022-09-09T04:35:07.125Z,2.00
2022-09-09T04:37:33.865Z,2.40
2022-09-09T04:40:05.105Z,2.07
2022-09-09T04:42:35.838Z,2.77
2022-09-09T04:45:02.660Z,6.07
2022-09-09T04:47:29.289Z,2.10
2022-09-09T04:49:56.387Z,4.27
2022-09-09T04:52:26.131Z,5.70
2022-09-09T04:54:54.978Z,3.77
2022-09-09T04:57:25.461Z,3.33
2022-09-09T04:59:52.093Z,1.50
2022-09-09T05:02:18.732Z,1.43
2022-09-09T05:04:45.871Z,2.50
2022-09-09T05:07:18.793Z,1.80
2022-09-09T05:09:49.178Z,1.73
2022-09-09T05:12:18.732Z,3.37
2022-09-09T05:14:45.373Z,4.70
2022-09-09T05:17:12.318Z,2.83
2022-09-09T05:19:38.953Z,1.97
2022-09-09T05:22:06.020Z,2.03
2022-09-09T05:24:35.742Z,2.00
2022-09-09T05:27:03.294Z,1.83
2022-09-09T05:29:30.010Z,2.13
2022-09-09T05:31:56.947Z,2.30
2022-09-09T05:34:23.574Z,5.23
2022-09-09T05:36:50.194Z,4.20
2022-09-09T05:39:20.197Z,3.50
2022-09-09T05:41:49.578Z,4.53
2022-09-09T05:44:20.472Z,4.63
2022-09-09T05:46:50.725Z,3.70
2022-09-09T05:49:18.370Z,3.70
2022-09-09T05:51:45.509Z,3.33
2022-09-09T05:54:14.489Z,3.07
2022-09-09T05:56:43.907Z,7.83
2022-09-09T05:59:10.835Z,3.53
2022-09-09T06:01:43.673Z,3.33
2022-09-09T06:04:10.799Z,2.33
2022-09-09T06:06:40.468Z,2.47
2022-09-09T06:09:11.087Z,2.10
2022-09-09T06:11:39.591Z,3.07
2022-09-09T06:14:07.199Z,2.83
2022-09-09T06:16:35.023Z,5.53
2022-09-09T06:19:04.241Z,3.63
2022-09-09T06:21:43.805Z,5.57
2022-09-09T06:24:11.162Z,2.97
2022-09-09T06:26:47.151Z,3.53
2022-09-09T06:29:13.780Z,3.93
2022-09-09T06:31:43.625Z,3.87
2022-09-09T06:34:10.606Z,3.50
2022-09-09T06:36:39.438Z,7.07
2022-09-09T06:39:14.668Z,3.73
2022-09-09T06:41:45.499Z,4.33
2022-09-09T06:44:16.557Z,6.67
2022-09-09T06:46:43.513Z,7.00
2022-09-09T06:49:10.778Z,6.50
2022-09-09T06:51:43.690Z,8.30
2022-09-09T06:54:12.145Z,9.93
2022-09-09T06:56:44.252Z,6.73
2022-09-09T06:59:13.316Z,7.50
2022-09-09T07:01:42.170Z,8.90
2022-09-09T07:04:10.359Z,10.33
2022-09-09T07:06:44.150Z,8.77
2022-09-09T07:09:13.158Z,7.20
2022-09-09T07:11:45.401Z,7.87
2022-09-09T07:14:15.682Z,10.77
2022-09-09T07:16:43.571Z,7.90
2022-09-09T07:19:11.561Z,9.17
2022-09-09T07:21:38.535Z,6.80
2022-09-09T07:24:08.298Z,7.83
2022-09-09T07:26:39.952Z,7.30
2022-09-09T07:29:06.945Z,5.77
2022-09-09T07:31:37.478Z,6.17
2022-09-09T07:34:06.191Z,8.97
2022-09-09T07:36:43.127Z,6.90
2022-09-09T07:39:15.057Z,7.00
2022-09-09T07:41:47.481Z,5.90
2022-09-09T07:44:23.424Z,5.93
2022-09-09T07:46:50.646Z,5.43
2022-09-09T07:49:27.472Z,4.57
2022-09-09T07:52:00.425Z,4.90
2022-09-09T07:54:27.218Z,5.97
2022-09-09T07:56:54.030Z,6.20
2022-09-09T07:59:21.357Z,6.23
2022-09-09T08:01:54.519Z,6.67
2022-09-09T08:04:23.715Z,5.53
2022-09-09T08:06:57.201Z,5.13
2022-09-09T08:09:30.010Z,5.47
2022-09-09T08:11:57.961Z,4.73
2022-09-09T08:14:28.048Z,5.00
2022-09-09T08:16:55.457Z,6.77
2022-09-09T08:19:22.471Z,4.33
2022-09-09T08:21:50.109Z,5.07
2022-09-09T08:24:17.782Z,5.73
2022-09-09T08:26:48.271Z,3.13
2022-09-09T08:29:15.120Z,4.63
2022-09-09T08:31:58.489Z,3.33
2022-09-09T08:34:28.197Z,2.30
2022-09-09T08:37:01.298Z,3.10
2022-09-09T08:39:28.266Z,2.63
2022-09-09T08:42:16.373Z,2.53
2022-09-09T08:45:01.539Z,3.77
2022-09-09T08:47:59.493Z,2.07
2022-09-09T08:50:37.428Z,2.70
2022-09-09T08:53:21.022Z,4.00
2022-09-09T08:56:04.851Z,3.70
2022-09-09T08:58:34.376Z,3.17
2022-09-09T09:01:18.395Z,3.37
2022-09-09T09:03:59.016Z,4.20
2022-09-09T09:07:08.154Z,2.87
2022-09-09T09:12:45.323Z,3.13
2022-09-09T09:15:28.367Z,3.90
2022-09-09T09:17:58.444Z,3.73
2022-09-09T09:20:50.255Z,3.57
2022-09-09T09:23:23.863Z,3.60
2022-09-09T09:25:53.754Z,4.93
2022-09-09T09:28:30.925Z,4.07
2022-09-09T09:31:10.347Z,3.80
2022-09-09T09:33:53.824Z,3.83
2022-09-09T09:36:34.703Z,6.03
2022-09-09T09:41:52.286Z,4.70
2022-09-09T09:44:30.474Z,6.50
2022-09-09T09:47:13.763Z,5.33
2022-09-09T09:49:51.600Z,5.63
2022-09-09T09:52:23.052Z,6.07
2022-09-09T09:54:49.996Z,4.03
2022-09-09T09:57:18.937Z,5.07
2022-09-09T09:59:46.892Z,4.47
2022-09-09T10:02:26.505Z,5.77
2022-09-09T10:05:18.856Z,4.53
2022-09-09T10:07:47.050Z,4.53
2022-09-09T10:10:26.030Z,4.30
2022-09-09T10:13:00.436Z,4.17
2022-09-09T10:16:12.600Z,4.87
2022-09-09T10:18:48.353Z,4.17
2022-09-09T10:21:24.945Z,2.90
2022-09-09T10:24:10.975Z,3.40
2022-09-09T10:27:01.394Z,5.50
2022-09-09T10:29:28.082Z,3.63
2022-09-09T10:32:16.540Z,5.10
2022-09-09T10:34:52.091Z,4.87
2022-09-09T10:37:55.726Z,5.33
2022-09-09T10:40:52.338Z,3.57
2022-09-09T10:44:00.440Z,4.40
2022-09-09T10:46:53.070Z,3.37
2022-09-09T10:49:41.768Z,5.00
2022-09-09T10:52:27.532Z,5.23
2022-09-09T10:55:17.899Z,4.13
2022-09-09T10:57:55.526Z,4.33
2022-09-09T11:00:33.097Z,3.43
2022-09-09T11:03:04.864Z,4.40
2022-09-09T11:05:48.209Z,4.93
2022-09-09T11:08:24.175Z,2.63
2022-09-09T11:11:05.695Z,2.07
2022-09-09T11:13:45.996Z,3.30
2022-09-09T11:16:34.987Z,2.90
2022-09-09T11:19:16.080Z,3.57
2022-09-09T11:21:47.984Z,3.60
2022-09-09T11:24:39.945Z,7.43
2022-09-09T11:27:26.001Z,2.90
2022-09-09T11:29:58.571Z,3.77
2022-09-09T11:38:52.611Z,2.90
2022-09-09T11:41:22.226Z,3.70
2022-09-09T11:43:52.301Z,3.83
2022-09-09T11:46:23.644Z,3.87
2022-09-09T11:49:04.279Z,5.37
2022-09-09T11:51:33.847Z,6.17
2022-09-09T11:54:35.417Z,7.17
2022-09-09T11:57:06.051Z,7.83
2022-09-09T11:59:36.708Z,8.10
2022-09-09T12:02:28.119Z,4.73
2022-09-09T12:05:11.293Z,4.60
2022-09-09T12:08:01.520Z,2.30
2022-09-09T12:10:41.154Z,1.80
2022-09-09T12:13:26.507Z,1.83
2022-09-09T12:15:58.289Z,3.43
2022-09-09T12:18:33.071Z,2.83
2022-09-09T12:21:21.494Z,1.40
2022-09-09T12:23:53.665Z,1.63
2022-09-09T12:26:39.195Z,1.93
2022-09-09T12:29:46.148Z,3.43
2022-09-09T12:32:19.728Z,2.30
2022-09-09T12:34:56.082Z,1.47
2022-09-09T12:37:35.786Z,2.00
2022-09-09T12:40:05.689Z,3.30
2022-09-09T12:42:41.239Z,1.60
2022-09-09T12:45:24.007Z,2.03
2022-09-09T12:48:01.974Z,3.03
2022-09-09T12:50:32.157Z,2.67
2022-09-09T12:53:35.979Z,4.23
2022-09-09T12:56:12.884Z,2.90
2022-09-09T12:58:43.768Z,3.67
2022-09-09T13:01:23.867Z,3.47
2022-09-09T13:03:51.122Z,2.27
2022-09-09T13:06:28.780Z,1.43
2022-09-09T13:09:01.171Z,5.20
2022-09-09T13:11:39.312Z,4.03
2022-09-09T13:14:07.471Z,4.30
2022-09-09T13:16:42.522Z,1.57
2022-09-09T13:19:19.101Z,1.67
2022-09-09T13:21:45.887Z,1.70
2022-09-09T13:24:35.104Z,1.67
2022-09-09T13:27:26.811Z,3.50
2022-09-09T13:29:58.123Z,1.90
2022-09-09T13:32:27.944Z,10.47
2022-09-09T13:35:12.982Z,6.27
2022-09-09T13:37:42.180Z,1.80
2022-09-09T13:40:20.838Z,2.13
2022-09-09T13:42:47.961Z,3.13
2022-09-09T13:45:28.074Z,3.50
2022-09-09T13:47:56.572Z,1.67
2022-09-09T13:50:32.788Z,2.50
2022-09-09T13:53:00.175Z,5.43
2022-09-09T13:55:29.186Z,5.43
2022-09-09T13:58:06.585Z,4.43
2022-09-09T14:00:35.872Z,4.63
2022-09-09T14:03:03.252Z,3.93
2022-09-09T14:05:33.852Z,3.87
2022-09-09T14:08:03.975Z,4.43
2022-09-09T14:10:30.760Z,4.73
2022-09-09T14:12:57.782Z,5.23
2022-09-09T14:15:24.897Z,3.97
2022-09-09T14:17:56.115Z,4.53
2022-09-09T14:20:25.682Z,5.77
2022-09-09T14:23:01.489Z,4.37
2022-09-09T14:25:30.725Z,5.63
2022-09-09T14:28:00.865Z,2.03
2022-09-09T14:30:34.046Z,3.23
2022-09-09T14:33:04.465Z,1.50
2022-09-09T14:35:37.714Z,3.50
2022-09-09T14:38:06.816Z,1.60
2022-09-09T14:40:35.819Z,1.50
2022-09-09T14:43:03.465Z,3.20
2022-09-09T14:45:30.319Z,3.10
2022-09-09T14:47:58.024Z,4.10
2022-09-09T14:50:25.735Z,2.70
2022-09-09T14:52:52.831Z,2.60
2022-09-09T14:55:20.375Z,2.37
2022-09-09T14:57:47.542Z,3.33
2022-09-09T15:00:14.947Z,1.20
2022-09-09T15:02:41.901Z,1.10
2022-09-09T15:05:09.466Z,1.40
2022-09-09T15:07:36.807Z,1.90
2022-09-09T15:10:04.363Z,2.80
2022-09-09T15:12:34.187Z,2.23
2022-09-09T15:15:00.874Z,1.20
2022-09-09T15:17:30.811Z,1.70
2022-09-09T15:19:58.275Z,1.20
2022-09-09T15:22:25.493Z,1.83
2022-09-09T15:24:52.489Z,2.00
2022-09-09T15:27:22.586Z,1.23
2022-09-09T15:29:49.589Z,1.73
2022-09-09T15:32:16.338Z,1.60
2022-09-09T15:34:47.411Z,1.20
2022-09-09T15:37:14.178Z,2.05
2022-09-09T15:39:42.107Z,1.77
2022-09-09T15:42:09.988Z,1.13
2022-09-09T15:44:41.203Z,3.10
2022-09-09T15:47:14.587Z,1.40
2022-09-09T15:49:41.358Z,2.78
2022-09-09T15:52:10.560Z,4.13
2022-09-09T15:54:44.443Z,1.60
2022-09-09T15:57:14.001Z,1.80
2022-09-09T15:59:43.426Z,2.00
2022-09-09T16:02:10.838Z,2.80
2022-09-09T16:04:38.547Z,3.13
2022-09-09T16:07:06.635Z,2.10
2022-09-09T16:09:34.618Z,2.17
2022-09-09T16:12:20.561Z,3.88
2022-09-09T16:14:49.856Z,3.90
2022-09-09T16:17:16.681Z,2.10
2022-09-09T16:19:43.416Z,2.23
2022-09-09T16:22:12.740Z,3.43
2022-09-09T16:24:39.583Z,2.40
2022-09-09T16:27:06.368Z,2.17
2022-09-09T16:29:33.188Z,3.43
2022-09-09T16:32:03.878Z,3.53
2022-09-09T16:34:31.029Z,3.47
2022-09-09T16:36:57.807Z,1.63
2022-09-09T16:39:24.606Z,2.20
2022-09-09T16:41:52.569Z,6.03
2022-09-09T16:44:20.457Z,4.53
2022-09-09T16:46:58.151Z,4.47
2022-09-09T16:49:34.802Z,4.30
2022-09-09T16:52:02.068Z,2.53
2022-09-09T16:54:30.025Z,2.43
2022-09-09T16:56:57.291Z,5.13
2022-09-09T16:59:26.780Z,5.53
2022-09-09T17:01:53.899Z,5.13
2022-09-09T17:04:25.379Z,3.30
2022-09-09T17:07:01.562Z,7.27
2022-09-09T17:09:32.514Z,6.90
2022-09-09T17:11:59.572Z,5.77
2022-09-09T17:14:32.308Z,2.90
2022-09-09T17:17:09.360Z,2.77
2022-09-09T17:19:46.381Z,4.87
2022-09-09T17:22:17.092Z,2.47
2022-09-09T17:24:45.405Z,3.40
2022-09-09T17:27:13.018Z,2.20
2022-09-09T17:29:40.198Z,3.40
2022-09-09T17:32:16.479Z,2.53
2022-09-09T17:34:43.262Z,3.70
2022-09-09T17:37:11.348Z,2.43
2022-09-09T17:39:38.266Z,2.60
2022-09-09T17:42:11.339Z,3.53
2022-09-09T17:44:38.230Z,2.03
2022-09-09T17:47:07.034Z,6.23
2022-09-09T17:49:34.699Z,4.97
2022-09-09T17:52:01.788Z,3.03
2022-09-09T17:54:38.989Z,3.40
2022-09-09T17:57:09.256Z,3.37
2022-09-09T17:59:42.109Z,3.10
2022-09-09T18:02:23.328Z,2.50
2022-09-09T18:04:50.473Z,3.60
2022-09-09T18:07:17.467Z,2.47
2022-09-09T18:09:44.646Z,3.43
2022-09-09T18:12:19.909Z,6.57
2022-09-09T18:14:48.515Z,4.23
2022-09-09T18:17:15.600Z,3.20
2022-09-09T18:19:43.633Z,1.73
2022-09-09T18:22:10.466Z,3.57
2022-09-09T18:24:37.434Z,2.33
2022-09-09T18:27:04.974Z,2.20
2022-09-09T18:29:31.734Z,2.83
2022-09-09T18:31:58.680Z,2.20
2022-09-09T18:34:29.051Z,3.97
2022-09-09T18:36:59.125Z,4.97
2022-09-09T18:39:29.103Z,3.87
2022-09-09T18:42:01.226Z,4.00
2022-09-09T18:44:31.566Z,3.97
2022-09-09T18:46:58.603Z,6.13
2022-09-09T18:49:26.160Z,4.80
2022-09-09T18:51:53.607Z,3.27
2022-09-09T18:54:25.377Z,3.63
2022-09-09T18:56:53.153Z,6.17
2022-09-09T18:59:23.199Z,3.27
2022-09-09T19:01:55.475Z,4.90
2022-09-09T19:04:23.570Z,2.20
2022-09-09T19:06:59.720Z,5.33
2022-09-09T19:09:29.658Z,6.33
2022-09-09T19:11:59.605Z,2.40
2022-09-09T19:14:29.205Z,2.67
2022-09-09T19:16:56.483Z,3.43
2022-09-09T19:19:29.696Z,4.93
2022-09-09T19:21:57.834Z,5.57
2022-09-09T19:24:30.353Z,4.47
2022-09-09T19:27:01.916Z,5.90
2022-09-09T19:29:31.745Z,6.37
2022-09-09T19:34:46.949Z,2.77
2022-09-09T19:37:18.207Z,4.37
2022-09-09T19:39:46.567Z,2.50
2022-09-09T19:42:16.811Z,2.87
2022-09-09T19:44:45.751Z,4.40
2022-09-09T19:47:14.837Z,3.30
2022-09-09T19:49:47.315Z,3.30
2022-09-09T19:52:14.701Z,6.70
2022-09-09T19:54:45.130Z,7.87
2022-09-09T19:57:12.304Z,23.60
2022-09-09T19:59:43.359Z,2.60
2022-09-09T20:02:13.877Z,2.37
2022-09-09T20:04:40.878Z,2.90
2022-09-09T20:07:09.020Z,8.03
2022-09-09T20:09:35.764Z,5.90
2022-09-09T20:12:02.858Z,6.07
2022-09-09T20:14:30.729Z,8.63
2022-09-09T20:16:57.594Z,10.10
2022-09-09T20:19:24.618Z,3.97
2022-09-09T20:21:52.657Z,3.73
2022-09-09T20:24:25.679Z,3.57
2022-09-09T20:26:52.693Z,2.73
2022-09-09T20:29:20.446Z,5.83
2022-09-09T20:31:50.743Z,4.17
2022-09-09T20:34:21.522Z,4.63
2022-09-09T20:36:57.191Z,6.70
2022-09-09T20:39:24.224Z,4.03
2022-09-09T20:41:55.303Z,3.90
2022-09-09T20:44:24.614Z,3.10
2022-09-09T20:47:06.028Z,3.73
2022-09-09T20:49:35.514Z,5.57
2022-09-09T20:52:03.833Z,5.20
2022-09-09T20:54:30.690Z,5.63
2022-09-09T20:56:58.969Z,6.60
2022-09-09T20:59:28.395Z,3.83
2022-09-09T21:01:57.284Z,3.67
2022-09-09T21:04:25.214Z,5.23
2022-09-09T21:06:55.113Z,3.73
2022-09-09T21:09:25.379Z,3.53
2022-09-09T21:11:53.949Z,5.57
2022-09-09T21:14:21.322Z,3.80
2022-09-09T21:16:48.320Z,3.93
2022-09-09T21:19:15.102Z,3.50
2022-09-09T21:21:45.509Z,4.97
2022-09-09T21:24:12.682Z,3.27
2022-09-09T21:26:39.821Z,3.90
2022-09-09T21:29:10.179Z,4.43
2022-09-09T21:31:37.895Z,5.37
2022-09-09T21:34:05.346Z,4.80
2022-09-09T21:36:32.178Z,5.53
2022-09-09T21:39:02.119Z,4.17
2022-09-09T21:41:34.262Z,4.23
2022-09-09T21:44:01.359Z,7.27
2022-09-09T21:46:28.458Z,5.80
2022-09-09T21:48:58.437Z,6.17
2022-09-09T21:51:26.107Z,3.83
2022-09-09T21:53:57.304Z,4.63
2022-09-09T21:56:30.479Z,6.60
2022-09-09T21:58:58.916Z,3.90
2022-09-09T22:01:26.751Z,3.87
2022-09-09T22:03:53.678Z,4.57
2022-09-09T22:06:20.541Z,3.23
2022-09-09T22:08:48.060Z,4.10
2022-09-09T22:11:17.496Z,4.43
2022-09-09T22:13:46.152Z,3.83
2022-09-09T22:16:17.039Z,5.00
2022-09-09T22:18:44.782Z,6.77
2022-09-09T22:21:14.628Z,11.77
2022-09-09T22:23:41.988Z,5.13
2022-09-09T22:26:09.996Z,5.90
2022-09-09T22:28:38.917Z,9.83
2022-09-09T22:31:28.196Z,8.00
2022-09-09T22:34:04.786Z,13.67
2022-09-09T22:36:32.508Z,13.07
2022-09-09T22:38:59.443Z,10.47
2022-09-09T22:41:26.261Z,7.60
2022-09-09T22:43:55.956Z,13.53
2022-09-09T22:46:23.714Z,18.27
2022-09-09T22:48:59.276Z,28.87
2022-09-09T22:51:26.179Z,48.00
2022-09-09T22:53:57.795Z,86.23
2022-09-09T22:56:27.846Z,67.07
2022-09-09T22:58:56.273Z,21.53
2022-09-09T23:01:25.360Z,54.00
2022-09-09T23:03:53.707Z,24.23
2022-09-09T23:06:23.069Z,41.30
2022-09-09T23:08:56.110Z,35.07
2022-09-09T23:11:26.693Z,31.47
2022-09-09T23:13:54.925Z,28.97
2022-09-09T23:16:32.843Z,52.47
2022-09-09T23:19:02.615Z,24.00
2022-09-09T23:21:30.362Z,7.97
2022-09-09T23:24:00.676Z,34.17
2022-09-09T23:26:29.879Z,66.00
2022-09-09T23:29:00.572Z,53.37
2022-09-09T23:31:29.638Z,12.00
2022-09-09T23:33:58.228Z,17.97
2022-09-09T23:36:26.232Z,29.77
2022-09-09T23:38:56.377Z,18.20
2022-09-09T23:41:23.277Z,18.43
2022-09-09T23:43:52.255Z,13.03
2022-09-09T23:46:22.852Z,37.00
2022-09-09T23:48:51.684Z,29.00
2022-09-09T23:51:21.122Z,47.00
2022-09-09T23:53:51.199Z,25.60
2022-09-09T23:56:22.837Z,9.37
2022-09-09T23:58:51.409Z,10.63
